createdAt,value
2022-09-24T00:01:40.283Z,5.40
2022-09-24T00:04:11.540Z,5.00
2022-09-24T00:06:44.136Z,4.43
2022-09-24T00:09:12.225Z,4.47
2022-09-24T00:11:40.588Z,5.43
2022-09-24T00:14:09.030Z,4.77
2022-09-24T00:16:40.454Z,5.00
2022-09-24T00:19:08.139Z,5.03
2022-09-24T00:21:37.498Z,5.17
2022-09-24T00:24:09.066Z,4.97
2022-09-24T00:26:51.212Z,4.90
2022-09-24T00:29:20.748Z,5.17
2022-09-24T00:31:48.527Z,5.43
2022-09-24T00:34:16.312Z,5.13
2022-09-24T00:36:44.867Z,5.47
2022-09-24T00:39:14.404Z,5.27
2022-09-24T00:41:44.927Z,5.83
2022-09-24T00:44:50.693Z,5.73
2022-09-24T00:47:27.114Z,5.53
2022-09-24T00:50:03.717Z,5.00
2022-09-24T00:52:31.427Z,4.90
2022-09-24T00:55:01.119Z,5.40
2022-09-24T00:57:29.179Z,5.67
2022-09-24T00:59:57.669Z,5.50
2022-09-24T01:02:25.379Z,5.63
2022-09-24T01:04:56.572Z,5.50
2022-09-24T01:07:25.421Z,5.50
2022-09-24T01:09:53.222Z,5.40
2022-09-24T01:12:33.450Z,4.90
2022-09-24T01:15:12.483Z,4.80
2022-09-24T01:17:50.520Z,5.47
2022-09-24T01:20:46.269Z,4.87
2022-09-24T01:23:37.397Z,5.13
2022-09-24T01:26:19.950Z,5.17
2022-09-24T01:29:06.732Z,4.87
2022-09-24T01:31:40.963Z,4.77
2022-09-24T01:34:12.372Z,4.93
2022-09-24T01:36:41.442Z,5.00
2022-09-24T01:39:10.074Z,5.10
2022-09-24T01:41:39.986Z,4.30
2022-09-24T01:44:07.828Z,5.40
2022-09-24T01:46:39.400Z,5.13
2022-09-24T01:49:07.237Z,5.50
2022-09-24T01:51:39.733Z,5.50
2022-09-24T01:54:12.697Z,5.40
2022-09-24T01:56:46.348Z,5.60
2022-09-24T01:59:17.715Z,5.77
2022-09-24T02:01:54.181Z,4.87
2022-09-24T02:04:23.411Z,5.10
2022-09-24T02:06:56.268Z,4.97
2022-09-24T02:09:30.789Z,4.83
2022-09-24T02:12:02.806Z,5.00
2022-09-24T02:14:33.414Z,4.30
2022-09-24T02:17:05.252Z,5.53
2022-09-24T02:19:37.156Z,6.33
2022-09-24T02:22:07.146Z,6.20
2022-09-24T02:24:43.523Z,4.77
2022-09-24T02:27:11.367Z,5.27
2022-09-24T02:29:39.020Z,4.90
2022-09-24T02:32:12.097Z,4.97
2022-09-24T02:34:43.468Z,5.90
2022-09-24T02:37:14.034Z,5.37
2022-09-24T02:39:41.932Z,5.47
2022-09-24T02:42:11.656Z,5.53
2022-09-24T02:44:39.281Z,5.23
2022-09-24T02:47:09.055Z,5.43
2022-09-24T02:49:36.752Z,5.67
2022-09-24T02:52:04.580Z,5.27
2022-09-24T02:54:32.370Z,5.73
2022-09-24T02:57:00.063Z,6.03
2022-09-24T02:59:27.948Z,5.27
2022-09-24T03:01:55.708Z,6.27
2022-09-24T03:04:25.289Z,5.50
2022-09-24T03:06:53.380Z,5.47
2022-09-24T03:09:21.012Z,5.53
2022-09-24T03:11:48.606Z,6.00
2022-09-24T03:14:16.310Z,4.97
2022-09-24T03:16:43.926Z,4.43
2022-09-24T03:19:11.566Z,5.30
2022-09-24T03:21:40.577Z,5.20
2022-09-24T03:24:08.257Z,5.53
2022-09-24T03:26:36.175Z,5.87
2022-09-24T03:29:04.261Z,6.20
2022-09-24T03:31:30.956Z,5.50
2022-09-24T03:33:59.195Z,6.27
2022-09-24T03:36:27.246Z,5.90
2022-09-24T03:38:57.791Z,6.90
2022-09-24T03:41:26.673Z,6.27
2022-09-24T03:43:54.622Z,5.60
2022-09-24T03:46:24.854Z,5.97
2022-09-24T03:48:52.645Z,6.10
2022-09-24T03:51:20.924Z,6.00
2022-09-24T03:53:49.573Z,6.57
2022-09-24T03:56:18.546Z,5.73
2022-09-24T03:58:47.594Z,6.23
2022-09-24T04:01:21.815Z,6.23
2022-09-24T04:03:49.988Z,6.47
2022-09-24T04:06:23.390Z,5.27
2022-09-24T04:08:53.767Z,5.33
2022-09-24T04:11:23.100Z,4.87
2022-09-24T04:13:50.743Z,6.20
2022-09-24T04:16:18.713Z,5.40
2022-09-24T04:18:48.657Z,5.30
2022-09-24T04:21:16.360Z,5.93
2022-09-24T04:23:44.019Z,5.63
2022-09-24T04:26:12.442Z,5.20
2022-09-24T04:28:41.425Z,5.17
2022-09-24T04:31:09.290Z,4.00
2022-09-24T04:33:36.929Z,4.83
2022-09-24T04:36:04.559Z,5.70
2022-09-24T04:38:32.180Z,4.57
2022-09-24T04:41:06.298Z,4.57
2022-09-24T04:43:34.177Z,4.47
2022-09-24T04:46:03.420Z,5.00
2022-09-24T04:48:31.253Z,5.37
2022-09-24T04:50:58.922Z,4.50
2022-09-24T04:53:26.488Z,4.67
2022-09-24T04:55:54.122Z,4.83
2022-09-24T04:58:21.751Z,4.33
2022-09-24T05:00:51.132Z,4.80
2022-09-24T05:03:21.185Z,4.80
2022-09-24T05:05:50.042Z,4.10
2022-09-24T05:08:17.731Z,4.47
2022-09-24T05:10:45.280Z,4.37
2022-09-24T05:13:13.539Z,4.50
2022-09-24T05:15:43.304Z,4.73
2022-09-24T05:18:11.165Z,4.27
2022-09-24T05:20:40.169Z,4.93
2022-09-24T05:23:08.815Z,4.90
2022-09-24T05:25:57.093Z,4.70
2022-09-24T05:28:23.794Z,5.07
2022-09-24T05:30:51.505Z,4.90
2022-09-24T05:33:19.205Z,4.30
2022-09-24T05:35:54.331Z,5.00
2022-09-24T05:38:21.982Z,5.00
2022-09-24T05:40:49.684Z,5.03
2022-09-24T05:43:19.183Z,5.13
2022-09-24T05:45:47.504Z,4.90
2022-09-24T05:48:15.118Z,4.80
2022-09-24T05:50:42.735Z,5.10
2022-09-24T05:53:11.701Z,5.30
2022-09-24T05:55:39.549Z,5.30
2022-09-24T05:58:08.815Z,4.97
2022-09-24T06:00:36.992Z,5.20
2022-09-24T06:03:07.824Z,4.73
2022-09-24T06:05:35.812Z,4.87
2022-09-24T06:08:03.998Z,5.07
2022-09-24T06:10:33.578Z,5.17
2022-09-24T06:13:01.425Z,5.07
2022-09-24T06:15:29.209Z,4.37
2022-09-24T06:17:56.972Z,4.80
2022-09-24T06:20:24.933Z,5.33
2022-09-24T06:22:56.073Z,4.90
2022-09-24T06:25:23.663Z,4.90
2022-09-24T06:28:00.486Z,4.57
2022-09-24T06:30:29.624Z,4.70
2022-09-24T06:33:02.861Z,5.37
2022-09-24T06:35:30.435Z,5.50
2022-09-24T06:37:58.056Z,5.27
2022-09-24T06:40:26.711Z,5.43
2022-09-24T06:42:55.809Z,5.33
2022-09-24T06:45:23.629Z,6.03
2022-09-24T06:47:54.482Z,5.10
2022-09-24T06:50:23.302Z,5.23
2022-09-24T06:52:51.167Z,6.43
2022-09-24T06:55:19.634Z,5.60
2022-09-24T06:57:47.652Z,5.50
2022-09-24T07:00:17.454Z,5.57
2022-09-24T07:02:45.115Z,5.63
2022-09-24T07:05:12.702Z,6.60
2022-09-24T07:07:41.374Z,6.20
2022-09-24T07:10:10.569Z,6.17
2022-09-24T07:12:38.306Z,6.97
2022-09-24T07:15:07.009Z,6.30
2022-09-24T07:17:36.391Z,6.70
2022-09-24T07:20:05.082Z,6.87
2022-09-24T07:22:32.749Z,7.37
2022-09-24T07:25:00.424Z,7.83
2022-09-24T07:27:28.082Z,7.10
2022-09-24T07:29:55.977Z,7.90
2022-09-24T07:32:28.971Z,6.97
2022-09-24T07:34:58.848Z,6.63
2022-09-24T07:37:26.573Z,6.57
2022-09-24T07:39:54.177Z,8.20
2022-09-24T07:42:21.836Z,7.67
2022-09-24T07:44:50.565Z,7.63
2022-09-24T07:47:18.692Z,7.80
2022-09-24T07:49:46.427Z,7.90
2022-09-24T07:52:15.414Z,8.53
2022-09-24T07:54:43.007Z,8.30
2022-09-24T07:57:13.527Z,8.07
2022-09-24T07:59:41.715Z,7.50
2022-09-24T08:02:16.376Z,11.13
2022-09-24T08:04:44.552Z,8.43
2022-09-24T08:07:12.786Z,8.70
2022-09-24T08:09:41.797Z,8.00
2022-09-24T08:12:10.260Z,7.93
2022-09-24T08:14:37.921Z,9.00
2022-09-24T08:17:05.557Z,8.47
2022-09-24T08:19:33.779Z,8.37
2022-09-24T08:22:01.948Z,8.50
2022-09-24T08:24:29.837Z,8.10
2022-09-24T08:26:59.482Z,7.73
2022-09-24T08:29:27.051Z,8.83
2022-09-24T08:31:54.903Z,8.90
2022-09-24T08:34:22.574Z,7.77
2022-09-24T08:36:50.256Z,8.63
2022-09-24T08:39:17.896Z,7.97
2022-09-24T08:41:56.959Z,8.50
2022-09-24T08:44:49.213Z,9.97
2022-09-24T08:47:34.771Z,8.20
2022-09-24T08:50:09.343Z,9.93
2022-09-24T08:52:49.908Z,9.20
2022-09-24T08:55:21.535Z,9.10
2022-09-24T08:57:56.702Z,8.20
2022-09-24T09:00:25.962Z,10.13
2022-09-24T09:03:02.492Z,10.17
2022-09-24T09:05:50.327Z,8.40
2022-09-24T09:08:52.933Z,9.07
2022-09-24T09:11:22.657Z,10.00
2022-09-24T09:13:55.986Z,10.27
2022-09-24T09:16:29.039Z,9.90
2022-09-24T09:19:01.592Z,9.63
2022-09-24T09:21:35.757Z,11.13
2022-09-24T09:24:05.958Z,9.60
2022-09-24T09:26:34.444Z,8.93
2022-09-24T09:29:02.695Z,9.97
2022-09-24T09:31:44.465Z,9.17
2022-09-24T09:34:29.745Z,9.90
2022-09-24T09:37:11.377Z,9.93
2022-09-24T09:39:46.591Z,9.60
2022-09-24T09:42:27.147Z,7.70
2022-09-24T09:44:55.375Z,11.57
2022-09-24T09:47:40.029Z,11.80
2022-09-24T09:50:16.160Z,10.23
2022-09-24T09:52:43.768Z,11.80
2022-09-24T09:55:22.328Z,10.90
2022-09-24T09:57:51.596Z,12.03
2022-09-24T10:00:34.703Z,12.07
2022-09-24T10:03:05.138Z,14.07
2022-09-24T10:05:32.925Z,12.07
2022-09-24T10:08:00.908Z,12.20
2022-09-24T10:10:30.274Z,11.53
2022-09-24T10:13:09.093Z,12.50
2022-09-24T10:15:49.369Z,10.57
2022-09-24T10:18:24.528Z,11.70
2022-09-24T10:20:52.464Z,11.83
2022-09-24T10:23:22.824Z,12.70
2022-09-24T10:25:53.545Z,13.10
2022-09-24T10:28:39.280Z,12.43
2022-09-24T10:31:13.280Z,12.80
2022-09-24T10:33:45.136Z,13.80
2022-09-24T10:36:17.407Z,12.00
2022-09-24T10:38:45.775Z,12.97
2022-09-24T10:41:26.025Z,13.23
2022-09-24T10:43:56.559Z,12.80
2022-09-24T10:46:51.973Z,12.73
2022-09-24T10:49:34.956Z,12.47
2022-09-24T10:52:10.690Z,11.07
2022-09-24T10:54:51.545Z,11.57
2022-09-24T10:57:30.206Z,10.23
2022-09-24T11:00:05.515Z,10.83
2022-09-24T11:03:03.138Z,9.60
2022-09-24T11:05:36.893Z,10.43
2022-09-24T11:08:23.363Z,10.37
2022-09-24T11:11:19.392Z,11.27
2022-09-24T11:13:58.870Z,15.07
2022-09-24T11:16:51.625Z,15.43
2022-09-24T11:19:37.293Z,14.23
2022-09-24T11:22:13.947Z,13.10
2022-09-24T11:25:10.153Z,13.43
2022-09-24T11:28:04.092Z,12.40
2022-09-24T11:30:47.477Z,13.93
2022-09-24T11:33:28.949Z,12.60
2022-09-24T11:36:11.714Z,11.37
2022-09-24T11:38:59.867Z,10.67
2022-09-24T11:41:40.693Z,12.87
2022-09-24T11:44:39.922Z,12.60
2022-09-24T11:47:26.122Z,12.37
2022-09-24T11:50:12.137Z,12.47
2022-09-24T11:52:45.875Z,11.73
2022-09-24T11:55:19.951Z,11.43
2022-09-24T11:57:54.895Z,10.30
2022-09-24T12:00:23.070Z,12.67
2022-09-24T12:02:53.507Z,11.07
2022-09-24T12:05:29.524Z,11.50
2022-09-24T12:08:02.801Z,10.40
2022-09-24T12:10:36.359Z,12.57
2022-09-24T12:13:13.413Z,11.73
2022-09-24T12:15:49.523Z,12.87
2022-09-24T12:18:22.291Z,10.17
2022-09-24T12:20:53.896Z,11.50
2022-09-24T12:23:28.057Z,11.00
2022-09-24T12:26:00.613Z,10.43
2022-09-24T12:28:53.362Z,12.17
2022-09-24T12:31:47.037Z,13.60
2022-09-24T12:34:22.825Z,12.60
2022-09-24T12:37:01.922Z,10.93
2022-09-24T12:39:36.705Z,10.50
2022-09-24T12:42:09.538Z,9.77
2022-09-24T12:44:43.268Z,8.80
2022-09-24T12:47:19.624Z,8.23
2022-09-24T12:49:53.051Z,7.50
2022-09-24T12:52:26.535Z,7.40
2022-09-24T12:55:03.178Z,7.17
2022-09-24T12:57:36.536Z,9.03
2022-09-24T13:00:26.615Z,7.20
2022-09-24T13:02:55.031Z,6.90
2022-09-24T13:05:28.741Z,5.97
2022-09-24T13:08:00.019Z,6.90
2022-09-24T13:10:30.004Z,6.23
2022-09-24T13:13:00.774Z,6.03
2022-09-24T13:15:36.531Z,6.33
2022-09-24T13:18:08.095Z,6.67
2022-09-24T13:20:37.839Z,6.43
2022-09-24T13:23:31.765Z,6.50
2022-09-24T13:26:03.729Z,6.87
2022-09-24T13:28:38.619Z,6.70
2022-09-24T13:31:13.941Z,5.60
2022-09-24T13:33:45.308Z,6.07
2022-09-24T13:36:17.039Z,6.33
2022-09-24T13:38:54.673Z,5.73
2022-09-24T13:41:30.885Z,6.17
2022-09-24T13:44:04.952Z,5.90
2022-09-24T13:46:35.997Z,5.43
2022-09-24T13:49:11.215Z,5.60
2022-09-24T13:51:42.019Z,5.80
2022-09-24T13:54:18.761Z,6.03
2022-09-24T13:57:01.272Z,5.80
2022-09-24T13:59:31.205Z,5.10
2022-09-24T14:01:59.002Z,6.07
2022-09-24T14:04:26.808Z,5.57
2022-09-24T14:06:57.352Z,5.83
2022-09-24T14:09:31.870Z,5.80
2022-09-24T14:12:01.682Z,5.03
2022-09-24T14:14:32.078Z,5.40
2022-09-24T14:17:17.394Z,5.70
2022-09-24T14:19:45.062Z,5.03
2022-09-24T14:22:17.183Z,5.23
2022-09-24T14:24:54.019Z,5.23
2022-09-24T14:27:24.280Z,4.90
2022-09-24T14:29:57.012Z,4.70
2022-09-24T14:32:30.019Z,5.20
2022-09-24T14:35:00.831Z,5.90
2022-09-24T14:37:32.876Z,5.30
2022-09-24T14:40:04.781Z,5.20
2022-09-24T14:42:37.881Z,5.30
2022-09-24T14:45:10.085Z,5.37
2022-09-24T14:47:38.505Z,5.03
2022-09-24T14:50:27.975Z,5.27
2022-09-24T14:52:57.682Z,4.07
2022-09-24T14:55:38.105Z,5.17
2022-09-24T14:58:05.905Z,4.70
2022-09-24T15:00:46.644Z,5.00
2022-09-24T15:03:17.302Z,4.93
2022-09-24T15:05:46.014Z,5.37
2022-09-24T15:08:28.372Z,5.73
2022-09-24T15:10:57.649Z,5.17
2022-09-24T15:13:27.512Z,4.73
2022-09-24T15:16:20.962Z,5.20
2022-09-24T15:18:58.221Z,5.10
2022-09-24T15:21:27.780Z,5.33
2022-09-24T15:23:57.483Z,6.00
2022-09-24T15:26:30.304Z,5.00
2022-09-24T15:28:58.412Z,5.37
2022-09-24T15:31:27.438Z,5.40
2022-09-24T15:33:56.009Z,5.10
2022-09-24T15:36:23.818Z,5.40
2022-09-24T15:38:52.271Z,5.50
2022-09-24T15:41:20.881Z,5.10
2022-09-24T15:43:48.453Z,5.73
2022-09-24T15:46:16.154Z,4.97
2022-09-24T15:48:45.539Z,4.40
2022-09-24T15:51:15.691Z,5.03
2022-09-24T15:53:43.513Z,5.77
2022-09-24T15:56:11.283Z,5.80
2022-09-24T15:58:38.912Z,5.27
2022-09-24T16:01:07.748Z,5.60
2022-09-24T16:03:35.384Z,5.33
2022-09-24T16:06:04.510Z,6.47
2022-09-24T16:08:32.145Z,6.23
2022-09-24T16:10:59.784Z,6.70
2022-09-24T16:13:27.474Z,5.33
2022-09-24T16:15:55.184Z,6.43
2022-09-24T16:18:25.990Z,6.20
2022-09-24T16:20:53.896Z,5.70
2022-09-24T16:23:22.782Z,6.13
2022-09-24T16:25:58.047Z,6.13
2022-09-24T16:28:26.832Z,6.07
2022-09-24T16:30:54.612Z,6.33
2022-09-24T16:33:22.951Z,6.50
2022-09-24T16:35:51.050Z,6.60
2022-09-24T16:38:22.556Z,6.50
2022-09-24T16:41:00.806Z,6.23
2022-09-24T16:43:28.558Z,7.40
2022-09-24T16:46:01.528Z,6.60
2022-09-24T16:48:29.279Z,6.47
2022-09-24T16:51:03.888Z,6.20
2022-09-24T16:53:35.159Z,6.70
2022-09-24T16:56:16.107Z,6.60
2022-09-24T16:58:45.015Z,6.33
2022-09-24T17:01:14.724Z,6.37
2022-09-24T17:03:43.000Z,6.07
2022-09-24T17:06:19.271Z,5.17
2022-09-24T17:09:04.368Z,4.60
2022-09-24T17:11:33.928Z,4.80
2022-09-24T17:14:01.967Z,4.43
2022-09-24T17:16:30.453Z,4.80
2022-09-24T17:18:58.221Z,5.50
2022-09-24T17:21:25.892Z,5.10
2022-09-24T17:23:53.869Z,5.13
2022-09-24T17:26:22.834Z,4.67
2022-09-24T17:28:54.144Z,4.33
2022-09-24T17:31:23.955Z,4.03
2022-09-24T17:33:56.964Z,3.47
2022-09-24T17:36:25.800Z,3.67
2022-09-24T17:38:53.741Z,3.57
2022-09-24T17:41:21.324Z,3.70
2022-09-24T17:43:49.082Z,4.13
2022-09-24T17:46:21.597Z,3.97
2022-09-24T17:48:52.322Z,4.00
2022-09-24T17:51:21.997Z,4.20
2022-09-24T17:53:51.600Z,4.27
2022-09-24T17:56:20.988Z,4.63
2022-09-24T17:58:48.995Z,4.33
2022-09-24T18:01:20.169Z,4.00
2022-09-24T18:03:49.489Z,4.67
2022-09-24T18:06:17.061Z,4.50
2022-09-24T18:08:46.296Z,4.10
2022-09-24T18:11:17.337Z,4.27
2022-09-24T18:13:45.589Z,4.33
2022-09-24T18:16:14.750Z,4.87
2022-09-24T18:18:44.909Z,5.40
2022-09-24T18:21:14.452Z,6.70
2022-09-24T18:23:42.485Z,6.37
2022-09-24T18:26:12.074Z,5.30
2022-09-24T18:28:41.461Z,4.70
2022-09-24T18:31:10.703Z,5.00
2022-09-24T18:33:40.769Z,5.70
2022-09-24T18:36:12.174Z,4.70
2022-09-24T18:38:39.881Z,3.87
2022-09-24T18:41:10.151Z,4.20
2022-09-24T18:43:38.403Z,4.27
2022-09-24T18:46:07.891Z,4.53
2022-09-24T18:48:36.122Z,4.57
2022-09-24T18:51:05.048Z,4.60
2022-09-24T18:53:35.690Z,3.57
2022-09-24T18:56:09.127Z,4.10
2022-09-24T18:58:36.716Z,4.23
2022-09-24T19:01:09.208Z,3.90
2022-09-24T19:03:39.543Z,3.90
2022-09-24T19:06:08.801Z,4.67
2022-09-24T19:08:37.796Z,4.23
2022-09-24T19:11:09.118Z,4.00
2022-09-24T19:13:37.577Z,6.10
2022-09-24T19:16:07.543Z,7.57
2022-09-24T19:18:36.373Z,5.57
2022-09-24T19:21:06.419Z,4.30
2022-09-24T19:23:38.299Z,4.20
2022-09-24T19:26:07.596Z,3.77
2022-09-24T19:28:36.726Z,3.50
2022-09-24T19:31:06.260Z,3.53
2022-09-24T19:33:34.721Z,3.30
2022-09-24T19:36:04.542Z,3.10
2022-09-24T19:38:35.608Z,3.50
2022-09-24T19:41:06.819Z,3.47
2022-09-24T19:43:35.296Z,3.27
2022-09-24T19:46:05.308Z,3.47
2022-09-24T19:48:36.840Z,3.77
2022-09-24T19:51:07.190Z,3.30
2022-09-24T19:53:34.789Z,3.10
2022-09-24T19:56:05.019Z,2.90
2022-09-24T19:58:32.720Z,2.73
2022-09-24T20:01:02.871Z,3.00
2022-09-24T20:03:32.146Z,2.70
2022-09-24T20:05:59.909Z,3.30
2022-09-24T20:08:28.190Z,3.60
2022-09-24T20:10:55.728Z,3.63
2022-09-24T20:13:25.833Z,4.10
2022-09-24T20:15:59.097Z,5.20
2022-09-24T20:18:27.113Z,4.97
2022-09-24T20:20:55.306Z,5.57
2022-09-24T20:23:23.475Z,5.90
2022-09-24T20:26:09.145Z,7.03
2022-09-24T20:28:38.448Z,7.60
2022-09-24T20:31:10.884Z,7.67
2022-09-24T20:33:41.027Z,6.17
2022-09-24T20:36:15.436Z,6.60
2022-09-24T20:38:45.960Z,6.60
2022-09-24T20:41:15.682Z,6.93
2022-09-24T20:43:45.488Z,7.27
2022-09-24T20:46:16.951Z,7.13
2022-09-24T20:48:45.225Z,7.17
2022-09-24T20:51:14.891Z,7.20
2022-09-24T20:53:42.678Z,7.03
2022-09-24T20:56:10.649Z,7.87
2022-09-24T20:58:39.949Z,8.13
2022-09-24T21:01:10.742Z,7.17
2022-09-24T21:03:45.574Z,8.07
2022-09-24T21:06:14.976Z,7.17
2022-09-24T21:08:44.346Z,8.03
2022-09-24T21:11:13.218Z,7.53
2022-09-24T21:13:42.162Z,8.43
2022-09-24T21:16:11.864Z,8.10
2022-09-24T21:18:42.861Z,8.53
2022-09-24T21:21:12.140Z,8.13
2022-09-24T21:23:40.244Z,8.67
2022-09-24T21:26:12.586Z,7.93
2022-09-24T21:28:40.598Z,8.40
2022-09-24T21:31:08.331Z,8.07
2022-09-24T21:33:37.713Z,7.53
2022-09-24T21:36:07.595Z,8.07
2022-09-24T21:38:35.281Z,7.40
2022-09-24T21:41:08.312Z,7.93
2022-09-24T21:43:36.412Z,7.50
2022-09-24T21:46:06.446Z,8.13
2022-09-24T21:48:35.220Z,7.20
2022-09-24T21:51:06.054Z,8.07
2022-09-24T21:53:34.651Z,8.00
2022-09-24T21:56:03.237Z,8.10
2022-09-24T21:58:31.323Z,7.90
2022-09-24T22:01:03.197Z,9.40
2022-09-24T22:03:32.850Z,9.30
2022-09-24T22:06:04.753Z,10.27
2022-09-24T22:08:32.414Z,9.83
2022-09-24T22:11:04.701Z,9.47
2022-09-24T22:13:33.499Z,9.70
2022-09-24T22:16:01.801Z,8.50
2022-09-24T22:18:30.377Z,8.37
2022-09-24T22:20:58.743Z,7.30
2022-09-24T22:23:27.687Z,8.00
2022-09-24T22:25:56.983Z,6.97
2022-09-24T22:28:25.441Z,7.27
2022-09-24T22:30:53.977Z,6.73
2022-09-24T22:33:39.845Z,7.17
2022-09-24T22:36:08.021Z,6.97
2022-09-24T22:38:37.511Z,6.53
2022-09-24T22:41:08.102Z,7.27
2022-09-24T22:43:36.076Z,6.40
2022-09-24T22:46:06.315Z,6.70
2022-09-24T22:48:34.638Z,6.87
2022-09-24T22:51:03.235Z,7.13
2022-09-24T22:53:33.837Z,7.47
2022-09-24T22:56:07.364Z,7.00
2022-09-24T22:58:35.455Z,7.93
2022-09-24T23:01:07.541Z,7.83
2022-09-24T23:03:35.875Z,7.27
2022-09-24T23:06:03.629Z,7.77
2022-09-24T23:08:33.205Z,7.80
2022-09-24T23:11:08.481Z,8.63
2022-09-24T23:13:36.635Z,7.00
2022-09-24T23:16:08.627Z,8.20
2022-09-24T23:18:36.226Z,7.70
2022-09-24T23:21:06.228Z,7.50
2022-09-24T23:23:34.274Z,6.53
2022-09-24T23:26:04.914Z,6.40
2022-09-24T23:28:35.480Z,5.97
2022-09-24T23:31:03.993Z,7.87
2022-09-24T23:33:33.573Z,7.50
2022-09-24T23:36:01.858Z,6.63
2022-09-24T23:38:30.710Z,7.60
2022-09-24T23:40:58.744Z,8.40
2022-09-24T23:43:27.051Z,7.93
2022-09-24T23:45:56.351Z,7.93
2022-09-24T23:48:24.872Z,8.47
2022-09-24T23:50:52.505Z,8.03
2022-09-24T23:53:21.703Z,8.43
2022-09-24T23:55:50.143Z,9.33
2022-09-24T23:58:20.002Z,8.10
